Main page
METAR-TAF:

METAR-TAF

Airports :

Lydd Airport

Lydd, England

latitude: 50-57N, longitude: 000-56E, elevation: 3 m

Current weather observation

The report was made 39 minutes ago, at 14:50 UTC
Wind 15 kt from the Southwest
Temperature 22°C
Humidity 78%
Pressure 1017 hPa
Visibility: 5000 m
Few clouds at a height of 200 ft
fog in vicinity

METAR: EGMD 231450Z 23015KT 9999 5000S VCFG FEW002 22/18 Q1017

Time: 16:29 (15:29 UTC)

Forecast

The report was made 1 hour and 33 minutes ago, at 13:56 UTC
Forecast valid from 23 at 15 UTC to 23 at 24 UTC
Wind 10 kt from the Southwest
Visibility 10 km or more
Few clouds at a height of 3500 ft
Probability 30% :
Temporary
from 23 at 15 UTC to 23 at 24 UTC
Visibility: 1500 m
Broken clouds at a height of 200 ft
mist

TAF: EGMD 231356Z 2315/2324 22010KT 9999 FEW035 PROB30 TEMPO 2315/2324 1500 BR BKN002

Weather observations and forecasts of more than 4000 airports (METAR and TAF reports).

The available stations are represented by yellow and red dots on the map.

Hover mouse over dot to see the name of the station.

Then click to see weather observations and forecasts.

To change the map : click on the green buttons with a black cross to zoom in, on the green button with a dash to zoom out, or on the green arrows for adjacent maps.


METAR-TAF: